createdAt,value
2022-09-20T00:02:50.881Z,85.26
2022-09-20T00:08:17.627Z,84.03
2022-09-20T00:13:42.559Z,83.04
2022-09-20T00:19:07.061Z,82.91
2022-09-20T00:24:35.563Z,81.51
2022-09-20T00:29:59.378Z,81.09
2022-09-20T00:35:24.393Z,82.05
2022-09-20T00:40:49.576Z,82.20
2022-09-20T00:46:23.427Z,83.53
2022-09-20T00:51:55.702Z,84.29
2022-09-20T00:57:21.037Z,83.69
2022-09-20T01:02:49.401Z,83.57
2022-09-20T01:08:15.105Z,82.98
2022-09-20T01:13:40.604Z,83.61
2022-09-20T01:19:17.606Z,83.14
2022-09-20T01:24:49.489Z,83.50
2022-09-20T01:30:20.157Z,83.53
2022-09-20T01:35:48.750Z,83.00
2022-09-20T01:41:21.995Z,83.69
2022-09-20T01:46:54.084Z,80.01
2022-09-20T01:52:56.988Z,82.24
2022-09-20T01:59:07.160Z,81.86
2022-09-20T02:05:05.843Z,82.55
2022-09-20T02:10:51.036Z,82.74
2022-09-20T02:16:40.886Z,83.93
2022-09-20T02:22:18.419Z,84.42
2022-09-20T02:27:58.069Z,83.21
2022-09-20T02:33:45.406Z,83.23
2022-09-20T02:39:17.715Z,83.41
2022-09-20T02:44:50.669Z,79.82
2022-09-20T02:50:26.167Z,79.10
2022-09-20T02:56:04.210Z,77.81
2022-09-20T03:01:44.332Z,77.56
2022-09-20T03:07:20.022Z,77.19
2022-09-20T03:12:58.513Z,76.10
2022-09-20T03:18:35.514Z,76.76
2022-09-20T03:24:11.265Z,75.52
2022-09-20T03:29:50.149Z,74.89
2022-09-20T03:35:28.594Z,74.14
2022-09-20T03:41:11.073Z,74.67
2022-09-20T03:46:45.560Z,73.66
2022-09-20T03:52:26.902Z,73.55
2022-09-20T03:58:14.843Z,74.89
2022-09-20T04:03:50.446Z,74.55
2022-09-20T04:09:45.016Z,75.12
2022-09-20T04:15:23.594Z,75.79
2022-09-20T04:20:52.163Z,80.40
2022-09-20T04:26:23.576Z,82.87
2022-09-20T04:31:54.598Z,80.94
2022-09-20T04:37:27.769Z,80.69
2022-09-20T04:43:33.466Z,83.00
2022-09-20T04:49:23.173Z,91.98
2022-09-20T04:55:31.251Z,100.00
2022-09-20T05:01:24.671Z,100.00
2022-09-20T05:07:17.046Z,100.00
2022-09-20T05:13:05.461Z,100.00
2022-09-20T05:19:10.301Z,100.00
2022-09-20T05:25:03.110Z,100.00
2022-09-20T05:30:38.068Z,100.00
2022-09-20T05:36:10.665Z,100.00
2022-09-20T05:41:44.152Z,100.00
2022-09-20T05:47:19.365Z,100.00
2022-09-20T05:52:53.814Z,100.00
2022-09-20T05:58:33.317Z,100.00
2022-09-20T06:04:10.450Z,100.00
2022-09-20T06:10:01.605Z,100.00
2022-09-20T06:15:35.348Z,100.00
2022-09-20T06:21:14.654Z,100.00
2022-09-20T06:26:44.708Z,100.00
2022-09-20T06:32:09.623Z,100.00
2022-09-20T06:38:03.262Z,100.00
2022-09-20T06:43:31.620Z,100.00
2022-09-20T06:48:59.225Z,100.00
2022-09-20T06:54:27.154Z,100.00
2022-09-20T06:59:51.741Z,100.00
2022-09-20T07:05:18.053Z,100.00
2022-09-20T07:10:45.229Z,100.00
2022-09-20T07:16:12.850Z,100.00
2022-09-20T07:21:37.493Z,99.81
2022-09-20T07:27:06.780Z,96.29
2022-09-20T07:32:31.054Z,90.14
2022-09-20T07:37:58.327Z,73.74
2022-09-20T07:43:23.944Z,70.73
2022-09-20T07:48:47.640Z,63.56
2022-09-20T07:54:12.144Z,65.73
2022-09-20T07:59:37.650Z,68.95
2022-09-20T08:05:01.716Z,68.98
2022-09-20T08:10:26.831Z,70.22
2022-09-20T08:15:52.283Z,70.06
2022-09-20T08:21:19.019Z,66.59
2022-09-20T08:26:43.770Z,63.09
2022-09-20T08:32:09.293Z,62.15
2022-09-20T08:37:33.796Z,61.37
2022-09-20T08:42:58.632Z,62.18
2022-09-20T08:48:28.685Z,65.00
2022-09-20T08:53:57.026Z,64.75
2022-09-20T08:59:26.030Z,64.90
2022-09-20T09:04:53.852Z,66.41
2022-09-20T09:10:18.190Z,66.68
2022-09-20T09:15:46.520Z,66.23
2022-09-20T09:21:20.490Z,62.14
2022-09-20T09:26:44.874Z,59.22
2022-09-20T09:32:24.609Z,57.45
2022-09-20T09:37:57.619Z,60.03
2022-09-20T09:43:27.047Z,60.91
2022-09-20T09:49:10.513Z,65.76
2022-09-20T09:54:40.264Z,67.33
2022-09-20T10:00:19.610Z,73.81
2022-09-20T10:05:56.835Z,79.92
2022-09-20T10:11:32.044Z,77.58
2022-09-20T10:17:13.508Z,81.30
2022-09-20T10:23:00.326Z,82.26
2022-09-20T10:28:50.792Z,83.32
2022-09-20T10:34:39.582Z,83.38
2022-09-20T10:40:18.906Z,80.87
2022-09-20T10:46:14.374Z,80.00
2022-09-20T10:51:47.917Z,81.17
2022-09-20T10:57:41.193Z,86.83
2022-09-20T11:03:22.265Z,89.97
2022-09-20T11:08:50.943Z,89.97
2022-09-20T11:14:19.573Z,91.41
2022-09-20T11:19:53.270Z,89.82
2022-09-20T11:25:22.342Z,90.90
2022-09-20T11:30:56.838Z,97.32
2022-09-20T11:36:29.509Z,100.00
2022-09-20T11:41:56.960Z,100.00
2022-09-20T11:47:49.800Z,100.00
2022-09-20T11:53:21.737Z,100.00
2022-09-20T11:58:49.064Z,96.35
2022-09-20T12:04:38.599Z,93.05
2022-09-20T12:10:09.478Z,92.08
2022-09-20T12:15:39.124Z,91.99
2022-09-20T12:21:15.951Z,87.14
2022-09-20T12:26:49.375Z,85.60
2022-09-20T12:32:41.020Z,84.92
2022-09-20T12:38:18.432Z,83.52
2022-09-20T12:43:57.700Z,83.87
2022-09-20T12:50:07.800Z,80.92
2022-09-20T12:55:43.839Z,76.92
2022-09-20T13:01:40.493Z,73.50
2022-09-20T13:07:44.171Z,75.99
2022-09-20T13:13:31.508Z,77.88
2022-09-20T13:19:05.303Z,80.55
2022-09-20T13:24:33.716Z,83.74
2022-09-20T13:30:11.123Z,82.79
2022-09-20T13:35:36.415Z,84.04
2022-09-20T13:41:06.361Z,85.96
2022-09-20T13:46:33.272Z,85.43
2022-09-20T13:51:58.576Z,87.73
2022-09-20T13:57:27.220Z,88.39
2022-09-20T14:02:54.690Z,93.13
2022-09-20T14:08:25.760Z,94.86
2022-09-20T14:13:54.191Z,96.78
2022-09-20T14:19:24.592Z,96.40
2022-09-20T14:25:02.692Z,98.34
2022-09-20T14:30:31.063Z,98.51
2022-09-20T14:35:55.545Z,99.03
2022-09-20T14:41:34.038Z,99.37
2022-09-20T14:46:59.246Z,99.77
2022-09-20T14:52:36.634Z,100.00
2022-09-20T14:58:08.480Z,100.00
2022-09-20T15:03:34.682Z,100.00
2022-09-20T15:09:01.108Z,100.00
2022-09-20T15:14:27.306Z,100.00
2022-09-20T15:19:53.862Z,100.00
2022-09-20T15:25:20.881Z,100.00
2022-09-20T15:30:46.949Z,100.00
2022-09-20T15:36:11.875Z,100.00
2022-09-20T15:41:37.127Z,100.00
2022-09-20T15:47:04.552Z,100.00
2022-09-20T15:52:34.594Z,100.00
2022-09-20T15:57:58.924Z,100.00
2022-09-20T16:03:31.132Z,100.00
2022-09-20T16:08:56.547Z,100.00
2022-09-20T16:14:20.720Z,100.00
2022-09-20T16:19:48.700Z,100.00
2022-09-20T16:25:13.419Z,100.00
2022-09-20T16:30:37.425Z,100.00
2022-09-20T16:36:03.511Z,100.00
2022-09-20T16:41:29.113Z,100.00
2022-09-20T16:46:53.331Z,100.00
2022-09-20T16:52:18.824Z,100.00
2022-09-20T16:57:43.736Z,100.00
2022-09-20T17:03:08.291Z,100.00
2022-09-20T17:08:38.832Z,100.00
2022-09-20T17:14:03.080Z,100.00
2022-09-20T17:19:28.877Z,100.00
2022-09-20T17:24:54.854Z,100.00
2022-09-20T17:30:19.655Z,100.00
2022-09-20T17:35:52.466Z,100.00
2022-09-20T17:41:20.776Z,100.00
2022-09-20T17:46:48.000Z,100.00
2022-09-20T17:52:12.992Z,100.00
2022-09-20T17:57:39.092Z,100.00
2022-09-20T18:03:05.104Z,100.00
2022-09-20T18:08:29.138Z,100.00
2022-09-20T18:13:55.544Z,100.00
2022-09-20T18:19:21.484Z,100.00
2022-09-20T18:24:46.296Z,100.00
2022-09-20T18:30:13.841Z,100.00
2022-09-20T18:35:42.791Z,100.00
2022-09-20T18:41:09.043Z,100.00
2022-09-20T18:46:37.946Z,100.00
2022-09-20T18:52:02.800Z,100.00
2022-09-20T18:57:27.777Z,100.00
2022-09-20T19:03:08.102Z,100.00
2022-09-20T19:08:39.492Z,100.00
2022-09-20T19:14:13.404Z,100.00
2022-09-20T19:19:48.217Z,100.00
2022-09-20T19:25:23.932Z,100.00
2022-09-20T19:30:49.049Z,100.00
2022-09-20T19:36:16.708Z,100.00
2022-09-20T19:41:51.039Z,100.00
2022-09-20T19:47:26.214Z,100.00
2022-09-20T19:52:52.207Z,100.00
2022-09-20T19:58:17.271Z,100.00
2022-09-20T20:03:47.607Z,100.00
2022-09-20T20:09:24.932Z,100.00
2022-09-20T20:14:58.353Z,100.00
2022-09-20T20:20:30.247Z,100.00
2022-09-20T20:26:03.374Z,100.00
2022-09-20T20:31:29.531Z,100.00
2022-09-20T20:37:01.003Z,100.00
2022-09-20T20:42:27.333Z,100.00
2022-09-20T20:47:57.333Z,100.00
2022-09-20T20:53:23.449Z,100.00
2022-09-20T20:58:50.026Z,100.00
2022-09-20T21:04:16.928Z,100.00
2022-09-20T21:09:41.802Z,100.00
2022-09-20T21:15:09.129Z,100.00
2022-09-20T21:20:39.378Z,100.00
2022-09-20T21:26:08.500Z,100.00
2022-09-20T21:31:36.361Z,100.00
2022-09-20T21:37:01.192Z,100.00
2022-09-20T21:42:27.284Z,100.00
2022-09-20T21:47:54.449Z,100.00
2022-09-20T21:53:20.619Z,100.00
2022-09-20T21:58:45.983Z,100.00
2022-09-20T22:04:13.201Z,100.00
2022-09-20T22:09:40.132Z,100.00
2022-09-20T22:15:06.128Z,100.00
2022-09-20T22:20:32.364Z,100.00
2022-09-20T22:26:00.666Z,100.00
2022-09-20T22:31:27.272Z,100.00
2022-09-20T22:36:53.934Z,100.00
2022-09-20T22:42:19.089Z,100.00
2022-09-20T22:47:44.939Z,100.00
2022-09-20T22:53:10.947Z,100.00
2022-09-20T22:58:37.943Z,100.00
2022-09-20T23:04:07.776Z,100.00
2022-09-20T23:09:35.447Z,100.00
2022-09-20T23:15:00.151Z,100.00
2022-09-20T23:20:24.974Z,100.00
2022-09-20T23:25:51.363Z,100.00
2022-09-20T23:31:17.578Z,100.00
2022-09-20T23:36:42.522Z,100.00
2022-09-20T23:42:08.814Z,100.00
2022-09-20T23:47:33.485Z,100.00
2022-09-20T23:52:58.056Z,100.00
2022-09-20T23:58:25.087Z,100.00
